Time;durP1;ratioP1;P1;durP2;ratioP2;P2;SDS_P1;SDS_P2;PMS_P1;PMS_P2;Temp;Humidity;BMP_temperature;BMP_pressure;BME280_temperature;BME280_humidity;BME280_pressure;Samples;Min_cycle;Max_cycle;Signal;HPM_P1;HPM_P2
2021/11/27 00:01:34;;;;;;;;;;;;;;;28.07;68.32;100962.06;5078042;27;66627;-35
2021/11/27 00:04:04;;;;;;;;;;;;;;;28.24;68.15;100984.13;5078363;27;70382;-35
2021/11/27 00:06:34;;;;;;;;;;;;;;;28.25;68.20;100984.97;5079731;27;66305;-36
2021/11/27 00:09:06;;;;;;;;;;;;;;;28.30;68.05;100987.91;5073271;27;70063;-35
2021/11/27 00:11:36;;;;;;;;;;;;;;;28.33;68.19;100989.38;5071714;27;66151;-36
2021/11/27 00:14:08;;;;;;;;;;;;;;;28.28;66.56;100988.13;5078208;27;70120;-36
2021/11/27 00:16:43;;;;;;;;;;;;;;;28.34;67.00;100994.56;5078799;27;65427;-35
2021/11/27 00:19:13;;;;;;;;;;;;;;;28.23;62.38;100997.84;5077570;27;70490;-35
2021/11/27 00:21:44;;;;;;;;;;;;;;;28.06;62.06;100992.78;5076301;27;64371;-36
2021/11/27 00:24:14;;;;;;;;;;;;;;;28.04;63.26;101011.00;5077945;27;69997;-36
2021/11/27 00:26:44;;;;;;;;;;;;;;;28.11;64.21;101004.81;5073971;27;65642;-36
2021/11/27 00:29:16;;;;;;;;;;;;;;;28.16;64.80;101008.56;5078723;27;70142;-36
2021/11/27 00:31:46;;;;;;;;;;;;;;;28.20;65.44;101014.44;5077536;27;66164;-36
2021/11/27 00:34:16;;;;;;;;;;;;;;;28.24;65.68;101016.50;5076346;27;69826;-35
2021/11/27 00:36:47;;;;;;;;;;;;;;;28.28;64.66;101015.09;5075053;27;65566;-36
2021/11/27 00:39:17;;;;;;;;;;;;;;;28.34;64.77;101010.75;5074504;27;69420;-36
2021/11/27 00:41:47;;;;;;;;;;;;;;;28.40;64.42;101019.91;5077108;27;65937;-35
2021/11/27 00:44:21;;;;;;;;;;;;;;;28.43;64.20;101023.06;5079258;27;70544;-35
2021/11/27 00:46:52;;;;;;;;;;;;;;;28.48;64.20;101022.47;5077264;27;67063;-35
2021/11/27 00:49:24;;;;;;;;;;;;;;;28.51;64.18;101025.59;5078316;27;70446;-35
2021/11/27 00:51:55;;;;;;;;;;;;;;;28.52;63.87;101024.56;5070347;27;67020;-35
2021/11/27 00:54:25;;;;;;;;;;;;;;;28.58;63.78;101032.88;5070655;27;70701;-35
2021/11/27 00:56:55;;;;;;;;;;;;;;;28.60;63.87;101041.63;5076426;27;65354;-34
2021/11/27 00:59:24;;;;;;;;;;;;;;;28.62;63.74;101044.97;5078139;27;69413;-35
2021/11/27 01:01:55;;;;;;;;;;;;;;;28.64;63.60;101038.34;5077375;27;66885;-36
2021/11/27 01:04:26;;;;;;;;;;;;;;;28.65;63.59;101031.06;5076949;28;69009;-36
2021/11/27 01:06:56;;;;;;;;;;;;;;;28.67;63.80;101043.31;5078125;27;65459;-35
2021/11/27 01:09:26;;;;;;;;;;;;;;;28.68;63.61;101044.16;5073200;27;70439;-36
2021/11/27 01:11:56;;;;;;;;;;;;;;;28.70;63.75;101047.50;5073665;28;66604;-36
2021/11/27 01:14:28;;;;;;;;;;;;;;;28.71;63.90;101063.47;5072796;27;69863;-36
2021/11/27 01:17:02;;;;;;;;;;;;;;;28.72;63.40;101067.84;5075974;27;66565;-37
2021/11/27 01:19:34;;;;;;;;;;;;;;;28.74;63.51;101048.75;5073726;27;71131;-36
2021/11/27 01:22:22;;;;;;;;;;;;;;;28.75;63.64;101061.19;5075044;27;66472;-35
2021/11/27 01:24:58;;;;;;;;;;;;;;;28.77;63.61;101066.41;5074628;27;70349;-35
2021/11/27 01:27:40;;;;;;;;;;;;;;;28.77;63.27;101067.22;5071516;27;66502;-36
2021/11/27 01:30:21;;;;;;;;;;;;;;;28.79;63.24;101067.88;5047280;28;70442;-35
2021/11/27 01:32:53;;;;;;;;;;;;;;;28.80;63.31;101074.94;5054570;27;66795;-36
2021/11/27 01:35:25;;;;;;;;;;;;;;;28.81;63.22;101076.59;5073073;27;69378;-34
2021/11/27 01:37:55;;;;;;;;;;;;;;;28.82;63.31;101070.16;5074277;27;66518;-36
2021/11/27 01:40:26;;;;;;;;;;;;;;;28.83;63.15;101071.81;5071751;27;70641;-36
2021/11/27 01:42:56;;;;;;;;;;;;;;;28.85;63.09;101071.63;5076197;27;66236;-37
2021/11/27 01:45:29;;;;;;;;;;;;;;;28.86;63.38;101074.13;5074402;27;69066;-36
2021/11/27 01:48:10;;;;;;;;;;;;;;;28.88;63.29;101068.53;5072539;27;65644;-37
2021/11/27 01:50:53;;;;;;;;;;;;;;;28.85;63.25;101066.22;5072674;27;68968;-35
2021/11/27 01:53:26;;;;;;;;;;;;;;;28.88;63.25;101066.66;5073954;27;65883;-36
2021/11/27 01:56:04;;;;;;;;;;;;;;;28.91;63.63;101063.53;5075247;27;69992;-35
2021/11/27 01:58:38;;;;;;;;;;;;;;;28.92;63.46;101067.94;5071784;27;65916;-35
2021/11/27 02:01:18;;;;;;;;;;;;;;;28.93;63.46;101064.19;5073991;27;69245;-36
2021/11/27 02:03:49;;;;;;;;;;;;;;;28.94;63.12;101055.03;5057195;27;66398;-35
2021/11/27 02:06:32;;;;;;;;;;;;;;;28.96;63.53;101063.78;5063029;28;70167;-36
2021/11/27 02:09:05;;;;;;;;;;;;;;;28.98;63.54;101060.06;5077442;27;65663;-35
2021/11/27 02:11:38;;;;;;;;;;;;;;;28.99;63.47;101050.91;5075519;27;70253;-35
2021/11/27 02:14:10;;;;;;;;;;;;;;;29.00;62.97;101047.16;5077508;27;66141;-35
2021/11/27 02:16:57;;;;;;;;;;;;;;;29.01;63.22;101060.47;5075856;28;69918;-35
2021/11/27 02:19:30;;;;;;;;;;;;;;;29.03;63.07;101049.44;5066345;27;67189;-36
2021/11/27 02:22:00;;;;;;;;;;;;;;;29.05;63.10;101044.72;5074157;27;70667;-35
2021/11/27 02:24:40;;;;;;;;;;;;;;;29.06;62.87;101054.47;5075102;27;65641;-35
2021/11/27 02:27:11;;;;;;;;;;;;;;;29.08;63.39;101055.09;5076589;27;70570;-36
2021/11/27 02:29:41;;;;;;;;;;;;;;;29.09;63.01;101051.38;5075433;27;66682;-36
2021/11/27 02:32:11;;;;;;;;;;;;;;;29.08;63.03;101050.53;5076291;27;70555;-36
2021/11/27 02:34:41;;;;;;;;;;;;;;;29.11;62.90;101054.69;5076930;27;65701;-36
2021/11/27 02:37:13;;;;;;;;;;;;;;;29.12;63.20;101050.97;5075434;27;69898;-36
2021/11/27 02:39:48;;;;;;;;;;;;;;;29.14;62.90;101056.97;5076982;27;66355;-36
2021/11/27 02:42:21;;;;;;;;;;;;;;;29.16;63.10;101049.50;5074603;27;70577;-36
2021/11/27 02:44:52;;;;;;;;;;;;;;;29.16;63.16;101049.50;5076895;27;66138;-36
2021/11/27 02:47:22;;;;;;;;;;;;;;;29.19;62.70;101049.09;5062728;27;70670;-36
2021/11/27 02:49:52;;;;;;;;;;;;;;;29.21;62.99;101047.03;5076250;27;65943;-35
2021/11/27 02:52:22;;;;;;;;;;;;;;;29.21;63.13;101049.75;5078195;27;71147;-35
2021/11/27 02:54:52;;;;;;;;;;;;;;;29.24;62.60;101054.72;5076850;27;67247;-36
2021/11/27 02:57:29;;;;;;;;;;;;;;;29.25;62.97;101050.97;5074335;27;69284;-36
2021/11/27 03:00:01;;;;;;;;;;;;;;;29.17;62.51;101037.69;5075449;28;66409;-35
2021/11/27 03:02:35;;;;;;;;;;;;;;;29.28;62.45;101045.19;5075673;27;70486;-35
2021/11/27 03:05:06;;;;;;;;;;;;;;;29.29;62.68;101044.16;5076299;27;66491;-36
2021/11/27 03:07:36;;;;;;;;;;;;;;;29.31;62.72;101035.81;5058937;27;70758;-36
2021/11/27 03:10:08;;;;;;;;;;;;;;;29.32;62.75;101035.63;5064747;27;66137;-35
2021/11/27 03:12:38;;;;;;;;;;;;;;;29.34;62.30;101028.16;5076771;27;70116;-35
2021/11/27 03:15:10;;;;;;;;;;;;;;;29.36;62.81;101025.22;5076404;27;65819;-35
2021/11/27 03:17:41;;;;;;;;;;;;;;;29.36;62.17;101020.69;5074285;27;70781;-35
2021/11/27 03:20:12;;;;;;;;;;;;;;;29.38;62.57;101015.88;5075610;28;67115;-34
2021/11/27 03:22:43;;;;;;;;;;;;;;;29.41;62.77;101017.34;5076149;27;70582;-37
2021/11/27 03:25:14;;;;;;;;;;;;;;;29.43;62.77;100998.22;5075892;27;66094;-34
2021/11/27 03:27:47;;;;;;;;;;;;;;;29.44;62.38;100994.47;5075325;27;70504;-36
2021/11/27 03:30:18;;;;;;;;;;;;;;;29.45;62.38;100996.97;5075901;27;66006;-35
2021/11/27 03:32:54;;;;;;;;;;;;;;;29.49;62.52;100997.38;5075563;27;69387;-36
2021/11/27 03:35:25;;;;;;;;;;;;;;;29.49;62.36;100986.56;5075848;27;66804;-36
2021/11/27 03:37:57;;;;;;;;;;;;;;;29.51;62.76;100979.09;5072521;27;70360;-36
2021/11/27 03:40:29;;;;;;;;;;;;;;;29.53;62.47;100980.56;5075232;27;65686;-36
2021/11/27 03:43:00;;;;;;;;;;;;;;;29.55;62.16;100969.53;5075723;27;71039;-35
2021/11/27 03:45:31;;;;;;;;;;;;;;;29.57;62.57;100972.84;5090108;27;65020;-35
2021/11/27 03:48:15;;;;;;;;;;;;;;;29.59;62.06;100976.19;5075895;27;70308;-35
2021/11/27 03:51:06;;;;;;;;;;;;;;;29.60;62.41;100973.25;5065760;27;66694;-35
2021/11/27 03:53:38;;;;;;;;;;;;;;;29.62;62.10;100964.94;5075286;27;70245;-35
2021/11/27 03:56:13;;;;;;;;;;;;;;;29.64;62.48;100956.66;5073835;27;66111;-35
2021/11/27 03:58:47;;;;;;;;;;;;;;;29.66;62.00;100954.56;5074200;27;70178;-35
2021/11/27 04:01:20;;;;;;;;;;;;;;;29.67;62.25;100957.06;5058670;28;65273;-35
2021/11/27 04:03:52;;;;;;;;;;;;;;;29.59;62.20;100944.56;5073916;27;71218;-35
2021/11/27 04:06:25;;;;;;;;;;;;;;;29.70;61.92;100951.25;5075822;27;66997;-35
2021/11/27 04:08:59;;;;;;;;;;;;;;;29.71;61.97;100952.91;5072909;28;71251;-35
2021/11/27 04:11:34;;;;;;;;;;;;;;;29.73;61.84;100945.41;5074909;27;66575;-35
2021/11/27 04:14:08;;;;;;;;;;;;;;;29.75;62.32;100932.50;5073495;27;70176;-35
2021/11/27 04:16:47;;;;;;;;;;;;;;;29.77;61.88;100929.59;5072670;27;65319;-35
2021/11/27 04:19:18;;;;;;;;;;;;;;;29.79;62.14;100928.34;5073368;27;70175;-37
2021/11/27 04:21:48;;;;;;;;;;;;;;;29.80;61.82;100921.88;5074404;27;67149;-35
2021/11/27 04:24:18;;;;;;;;;;;;;;;29.81;62.26;100926.25;5073626;27;69133;-36
2021/11/27 04:26:49;;;;;;;;;;;;;;;29.83;61.68;100918.75;5074897;27;66547;-36
2021/11/27 04:29:23;;;;;;;;;;;;;;;29.84;62.12;100906.91;5054285;27;70009;-36
2021/11/27 04:31:53;;;;;;;;;;;;;;;29.87;61.54;100912.94;5074057;27;66523;-36
2021/11/27 04:34:24;;;;;;;;;;;;;;;29.88;62.08;100914.59;5063743;27;68875;-36
2021/11/27 04:36:55;;;;;;;;;;;;;;;29.89;61.70;100900.00;5073095;27;66594;-35
2021/11/27 04:39:25;;;;;;;;;;;;;;;29.90;62.15;100899.00;5051136;27;69885;-35
2021/11/27 04:41:56;;;;;;;;;;;;;;;29.91;61.82;100887.13;5083653;27;66487;-35
2021/11/27 04:44:26;;;;;;;;;;;;;;;29.93;61.78;100890.44;5060510;28;69281;-36
2021/11/27 04:46:56;;;;;;;;;;;;;;;29.94;61.80;100881.28;5074278;27;66689;-36
2021/11/27 04:49:26;;;;;;;;;;;;;;;29.95;62.22;100877.53;5072568;27;70530;-36
2021/11/27 04:51:56;;;;;;;;;;;;;;;29.96;61.69;100879.19;5072346;27;64999;-36
2021/11/27 04:54:27;;;;;;;;;;;;;;;29.98;62.24;100866.31;5072708;27;70243;-36
2021/11/27 04:56:57;;;;;;;;;;;;;;;30.00;61.58;100858.78;5074423;27;66527;-35
2021/11/27 04:59:28;;;;;;;;;;;;;;;30.01;61.72;100857.75;5072021;27;69246;-35
2021/11/27 05:01:58;;;;;;;;;;;;;;;30.02;62.02;100846.69;5090600;27;65802;-35
2021/11/27 05:04:29;;;;;;;;;;;;;;;30.04;62.05;100849.22;5072927;27;70356;-36
2021/11/27 05:07:02;;;;;;;;;;;;;;;30.04;61.36;100835.69;5073029;27;66748;-35
2021/11/27 05:09:32;;;;;;;;;;;;;;;30.06;61.46;100834.41;5059637;27;70084;-36
2021/11/27 05:12:03;;;;;;;;;;;;;;;30.08;61.33;100833.38;5073870;27;66733;-35
2021/11/27 05:14:33;;;;;;;;;;;;;;;30.07;61.44;100827.13;5073210;27;69897;-36
2021/11/27 05:17:03;;;;;;;;;;;;;;;30.08;61.75;100823.38;5074327;27;66726;-36
2021/11/27 05:19:36;;;;;;;;;;;;;;;30.10;61.35;100821.28;5054533;28;69264;-34
2021/11/27 05:22:15;;;;;;;;;;;;;;;30.11;61.70;100819.41;5075269;28;66330;-35
2021/11/27 05:24:45;;;;;;;;;;;;;;;30.11;61.91;100822.94;5072212;27;69423;-36
2021/11/27 05:27:36;;;;;;;;;;;;;;;30.13;61.50;100826.25;5074714;27;65674;-36
2021/11/27 05:30:27;;;;;;;;;;;;;;;30.13;61.91;100815.44;5073998;27;70415;-36
2021/11/27 05:35:50;;;;;;;;;;;;;;;30.13;61.41;100804.63;5070739;27;69900;-35
2021/11/27 05:38:20;;;;;;;;;;;;;;;30.14;61.41;100806.25;5079502;27;65237;-36
2021/11/27 05:40:52;;;;;;;;;;;;;;;30.13;61.50;100799.22;5078544;27;69997;-36
2021/11/27 05:43:22;;;;;;;;;;;;;;;30.15;61.39;100793.59;5076859;27;66014;-36
2021/11/27 05:45:52;;;;;;;;;;;;;;;30.13;61.53;100782.97;5076160;27;70311;-37
2021/11/27 05:48:28;;;;;;;;;;;;;;;30.03;61.84;100771.78;5044977;27;66415;-35
2021/11/27 05:51:16;;;;;;;;;;;;;;;30.16;61.89;100787.13;5079659;27;70925;-36
2021/11/27 05:53:46;;;;;;;;;;;;;;;30.16;61.88;100782.53;5077208;27;65308;-35
2021/11/27 05:56:18;;;;;;;;;;;;;;;30.17;61.44;100778.81;5077996;28;69784;-35
2021/11/27 05:58:48;;;;;;;;;;;;;;;30.18;61.51;100780.44;5079138;27;66527;-35
2021/11/27 06:01:18;;;;;;;;;;;;;;;30.18;61.43;100768.81;5077153;28;69397;-35
2021/11/27 06:03:49;;;;;;;;;;;;;;;30.17;61.51;100762.56;5077516;27;66251;-36
2021/11/27 06:06:18;;;;;;;;;;;;;;;30.19;61.85;100765.88;5077803;27;70000;-35
2021/11/27 06:08:48;;;;;;;;;;;;;;;30.19;61.51;100763.16;5077657;27;66332;-35
2021/11/27 06:11:18;;;;;;;;;;;;;;;30.12;61.81;100751.56;5077653;27;70607;-36
2021/11/27 06:13:48;;;;;;;;;;;;;;;30.21;61.93;100757.53;5079000;27;66940;-36
2021/11/27 06:16:18;;;;;;;;;;;;;;;30.21;61.98;100758.38;5075909;28;69202;-35
2021/11/27 06:18:48;;;;;;;;;;;;;;;30.24;61.54;100751.72;5060554;28;66733;-35
2021/11/27 06:21:21;;;;;;;;;;;;;;;30.23;61.84;100744.66;5076627;27;69489;-35
2021/11/27 06:23:51;;;;;;;;;;;;;;;30.24;61.95;100749.00;5076552;27;66384;-36
2021/11/27 06:26:21;;;;;;;;;;;;;;;30.23;61.47;100742.78;5075578;27;69513;-36
2021/11/27 06:28:51;;;;;;;;;;;;;;;30.24;61.40;100747.13;5078767;27;66539;-36
2021/11/27 06:31:22;;;;;;;;;;;;;;;30.25;61.28;100737.97;5075059;27;69632;-36
2021/11/27 06:33:52;;;;;;;;;;;;;;;30.26;61.88;100738.81;5078375;27;66470;-35
2021/11/27 06:36:25;;;;;;;;;;;;;;;30.27;61.42;100740.47;5075370;27;69677;-35
2021/11/27 06:38:56;;;;;;;;;;;;;;;30.27;61.96;100735.88;5076645;27;65819;-36
2021/11/27 06:41:26;;;;;;;;;;;;;;;30.28;61.54;100731.28;5075079;27;70105;-35
2021/11/27 06:44:24;;;;;;;;;;;;;;;30.27;61.67;100735.88;5068107;27;66721;-36
2021/11/27 06:46:54;;;;;;;;;;;;;;;30.28;61.93;100732.13;5078358;27;69766;-36
2021/11/27 06:49:25;;;;;;;;;;;;;;;30.30;62.01;100739.19;5075828;27;65786;-35
2021/11/27 06:51:55;;;;;;;;;;;;;;;30.30;61.86;100731.06;5076476;27;69353;-36
2021/11/27 06:54:25;;;;;;;;;;;;;;;30.30;62.00;100734.59;5076397;27;66342;-35
2021/11/27 06:56:54;;;;;;;;;;;;;;;30.30;61.67;100723.78;5077357;27;69169;-35
2021/11/27 06:59:26;;;;;;;;;;;;;;;30.30;62.03;100712.13;5076200;27;65950;-35
2021/11/27 07:02:03;;;;;;;;;;;;;;;30.30;61.54;100704.84;5077402;27;69919;-35
2021/11/27 07:04:51;;;;;;;;;;;;;;;30.31;62.14;100708.38;5078016;28;66925;-36
2021/11/27 07:07:49;;;;;;;;;;;;;;;30.30;62.34;100693.19;5059676;27;69904;-36
2021/11/27 07:10:42;;;;;;;;;;;;;;;30.26;62.38;100690.94;5075586;27;66828;-34
2021/11/27 07:13:18;;;;;;;;;;;;;;;30.31;62.42;100686.72;5075004;27;70393;-36
2021/11/27 07:15:51;;;;;;;;;;;;;;;30.32;62.20;100688.41;5074555;27;65592;-35
2021/11/27 07:18:21;;;;;;;;;;;;;;;30.31;62.23;100686.72;5074492;27;69598;-34
2021/11/27 07:20:51;;;;;;;;;;;;;;;30.31;62.44;100681.31;5076312;27;66273;-34
2021/11/27 07:23:22;;;;;;;;;;;;;;;30.32;62.27;100688.41;5062968;27;69460;-34
2021/11/27 07:25:51;;;;;;;;;;;;;;;30.30;62.27;100675.06;5074697;27;65640;-35
2021/11/27 07:28:48;;;;;;;;;;;;;;;30.33;61.64;100673.81;5064982;27;70274;-35
2021/11/27 07:31:18;;;;;;;;;;;;;;;30.32;62.00;100683.81;5075624;27;65146;-35
2021/11/27 07:33:48;;;;;;;;;;;;;;;30.32;61.79;100677.56;5074718;27;69905;-35
2021/11/27 07:36:17;;;;;;;;;;;;;;;30.33;62.06;100682.75;5077309;27;66216;-36
2021/11/27 07:38:47;;;;;;;;;;;;;;;30.33;62.28;100687.34;5075581;27;70383;-36
2021/11/27 07:41:17;;;;;;;;;;;;;;;30.33;62.01;100680.03;5059408;27;66220;-36
2021/11/27 07:43:47;;;;;;;;;;;;;;;30.33;62.25;100681.91;5076381;27;69345;-36
2021/11/27 07:46:38;;;;;;;;;;;;;;;30.33;62.36;100685.44;5077111;27;66490;-36
2021/11/27 07:49:26;;;;;;;;;;;;;;;30.33;62.34;100679.22;5074918;27;70084;-36
2021/11/27 07:52:35;;;;;;;;;;;;;;;30.12;63.21;100677.72;5062811;27;67118;-35
2021/11/27 07:55:05;;;;;;;;;;;;;;;30.03;63.59;100677.13;5075303;27;69416;-36
2021/11/27 07:57:35;;;;;;;;;;;;;;;29.97;64.76;100675.31;5062248;27;66168;-35
2021/11/27 08:00:06;;;;;;;;;;;;;;;29.78;62.70;100683.34;5070545;27;70397;-35
2021/11/27 08:02:40;;;;;;;;;;;;;;;29.50;60.39;100678.25;5075663;27;66291;-36
2021/11/27 08:05:10;;;;;;;;;;;;;;;29.30;58.16;100672.94;5071996;27;70095;-34
2021/11/27 08:07:40;;;;;;;;;;;;;;;29.18;57.49;100677.38;5071187;27;65895;-35
2021/11/27 08:10:11;;;;;;;;;;;;;;;29.07;57.46;100678.03;5073898;27;70316;-36
2021/11/27 08:12:41;;;;;;;;;;;;;;;29.00;56.92;100674.47;5073567;27;67123;-35
2021/11/27 08:15:11;;;;;;;;;;;;;;;28.92;56.27;100668.28;5069329;27;69516;-35
2021/11/27 08:17:41;;;;;;;;;;;;;;;28.85;56.16;100669.34;5074533;27;66652;-35
2021/11/27 08:20:12;;;;;;;;;;;;;;;28.77;55.72;100670.41;5073793;27;69338;-36
2021/11/27 08:22:42;;;;;;;;;;;;;;;28.68;55.38;100677.88;5074934;27;66212;-35
2021/11/27 08:25:12;;;;;;;;;;;;;;;28.65;55.21;100682.88;5073829;27;69337;-35
2021/11/27 08:27:42;;;;;;;;;;;;;;;28.56;55.03;100676.88;5076696;27;66389;-36
2021/11/27 08:30:12;;;;;;;;;;;;;;;28.51;54.39;100679.38;5073605;27;70551;-36
2021/11/27 08:32:47;;;;;;;;;;;;;;;28.46;54.30;100680.00;5076736;27;66896;-36
2021/11/27 08:35:17;;;;;;;;;;;;;;;28.40;53.73;100688.06;5056833;28;69773;-35
2021/11/27 08:37:47;;;;;;;;;;;;;;;28.36;53.48;100684.09;5075801;27;66302;-35
2021/11/27 08:40:17;;;;;;;;;;;;;;;28.30;53.47;100680.38;5075143;27;69541;-35
2021/11/27 08:42:47;;;;;;;;;;;;;;;28.29;53.05;100681.41;5074770;27;66460;-35
2021/11/27 08:45:18;;;;;;;;;;;;;;;28.22;53.15;100684.13;5074262;27;70695;-35
2021/11/27 08:47:48;;;;;;;;;;;;;;;28.19;53.08;100689.09;5076236;27;66159;-35
2021/11/27 08:50:18;;;;;;;;;;;;;;;28.15;53.04;100690.56;5075900;27;70787;-35
2021/11/27 08:52:48;;;;;;;;;;;;;;;28.14;52.61;100697.81;5076455;27;66330;-35
2021/11/27 08:55:18;;;;;;;;;;;;;;;28.12;52.43;100691.78;5076529;27;69856;-36
2021/11/27 08:57:49;;;;;;;;;;;;;;;28.09;52.59;100689.50;5076172;27;66540;-35
2021/11/27 09:00:19;;;;;;;;;;;;;;;28.07;52.18;100687.00;5075468;27;69385;-36
2021/11/27 09:02:49;;;;;;;;;;;;;;;28.03;52.38;100696.56;5075538;27;67127;-35
2021/11/27 09:05:19;;;;;;;;;;;;;;;28.02;52.09;100692.19;5075102;27;69836;-36
2021/11/27 09:07:49;;;;;;;;;;;;;;;27.98;51.73;100690.94;5075421;27;65895;-36
2021/11/27 09:10:20;;;;;;;;;;;;;;;27.98;51.62;100693.63;5076347;27;69969;-34
2021/11/27 09:12:51;;;;;;;;;;;;;;;27.94;51.49;100694.25;5073334;27;66295;-35
2021/11/27 09:15:21;;;;;;;;;;;;;;;27.92;51.14;100691.78;5076024;27;70368;-36
2021/11/27 09:17:51;;;;;;;;;;;;;;;27.88;51.30;100703.97;5075497;27;66744;-38
2021/11/27 09:20:21;;;;;;;;;;;;;;;27.88;51.24;100697.75;5074321;27;69719;-35
2021/11/27 09:22:51;;;;;;;;;;;;;;;27.83;51.21;100699.22;5075798;27;65686;-35
2021/11/27 09:25:21;;;;;;;;;;;;;;;27.83;51.11;100695.69;5075977;27;71180;-35
2021/11/27 09:27:51;;;;;;;;;;;;;;;27.82;50.82;100702.09;5071850;27;65994;-35
2021/11/27 09:30:21;;;;;;;;;;;;;;;27.77;50.94;100702.69;5075394;27;70287;-35
2021/11/27 09:32:50;;;;;;;;;;;;;;;27.78;50.69;100703.53;5074604;27;66403;-39
2021/11/27 09:35:21;;;;;;;;;;;;;;;27.75;50.62;100703.91;5072412;27;69817;-35
2021/11/27 09:37:51;;;;;;;;;;;;;;;27.74;50.22;100707.66;5074259;27;66737;-36
2021/11/27 09:40:21;;;;;;;;;;;;;;;27.74;50.49;100710.34;5062249;27;69864;-35
2021/11/27 09:42:55;;;;;;;;;;;;;;;27.70;50.45;100717.19;5072860;27;66573;-35
2021/11/27 09:45:25;;;;;;;;;;;;;;;27.72;50.21;100717.78;5066155;27;70031;-35
2021/11/27 09:47:55;;;;;;;;;;;;;;;27.68;49.85;100719.25;5075057;27;66397;-34
2021/11/27 09:50:26;;;;;;;;;;;;;;;27.67;49.98;100723.00;5073453;27;69563;-34
2021/11/27 09:52:56;;;;;;;;;;;;;;;27.68;50.78;100719.25;5073084;28;66365;-36
2021/11/27 09:55:26;;;;;;;;;;;;;;;27.81;51.72;100720.16;5074697;27;70848;-35
2021/11/27 09:57:56;;;;;;;;;;;;;;;27.95;52.27;100715.63;5069848;27;67010;-35
2021/11/27 10:00:26;;;;;;;;;;;;;;;28.06;53.48;100725.81;5072945;27;69820;-36
2021/11/27 10:02:58;;;;;;;;;;;;;;;28.16;53.90;100716.47;5072157;27;66347;-35
2021/11/27 10:05:28;;;;;;;;;;;;;;;28.26;54.61;100728.53;5072446;27;69482;-35
2021/11/27 10:07:58;;;;;;;;;;;;;;;28.33;55.75;100723.13;5072535;27;65869;-35
2021/11/27 10:10:28;;;;;;;;;;;;;;;28.44;59.36;100730.63;5074937;27;70246;-35
2021/11/27 10:12:58;;;;;;;;;;;;;;;28.54;61.21;100729.41;5073287;27;66922;-35
2021/11/27 10:15:28;;;;;;;;;;;;;;;28.62;63.74;100731.88;5072505;27;70045;-37
2021/11/27 10:17:58;;;;;;;;;;;;;;;28.54;64.96;100729.41;5074506;27;67498;-36
2021/11/27 10:20:32;;;;;;;;;;;;;;;28.52;65.90;100733.13;5069873;27;69968;-36
2021/11/27 10:23:02;;;;;;;;;;;;;;;28.56;66.03;100740.81;5073139;27;66261;-36
2021/11/27 10:25:34;;;;;;;;;;;;;;;28.51;66.04;100736.88;5076546;27;69648;-37
2021/11/27 10:28:06;;;;;;;;;;;;;;;28.50;66.54;100737.91;5077648;27;66426;-36
2021/11/27 10:30:41;;;;;;;;;;;;;;;28.44;65.99;100730.63;5060122;28;70046;-36
2021/11/27 10:33:11;;;;;;;;;;;;;;;28.51;66.28;100742.25;5075041;27;66653;-36
2021/11/27 10:35:52;;;;;;;;;;;;;;;28.47;66.49;100741.03;5078420;27;70326;-36
2021/11/27 10:38:23;;;;;;;;;;;;;;;28.48;66.38;100737.28;5058616;27;65057;-36
2021/11/27 10:40:57;;;;;;;;;;;;;;;28.50;66.10;100750.53;5078542;27;69252;-36
2021/11/27 10:43:28;;;;;;;;;;;;;;;28.45;66.43;100748.50;5077228;27;65653;-36
2021/11/27 10:46:28;;;;;;;;;;;;;;;28.44;66.20;100738.72;5076751;27;69719;-36
2021/11/27 10:48:59;;;;;;;;;;;;;;;28.43;66.08;100737.06;5077957;27;65313;-36
2021/11/27 10:51:29;;;;;;;;;;;;;;;28.44;66.36;100740.59;5076600;27;68851;-36
2021/11/27 10:54:01;;;;;;;;;;;;;;;28.41;65.84;100747.19;5078873;27;66617;-36
2021/11/27 10:56:45;;;;;;;;;;;;;;;28.42;66.39;100748.91;5075761;27;70615;-37
2021/11/27 10:59:16;;;;;;;;;;;;;;;28.39;66.39;100738.50;5078482;27;65876;-36
2021/11/27 11:01:58;;;;;;;;;;;;;;;28.37;66.32;100743.25;5077626;27;69802;-36
2021/11/27 11:04:29;;;;;;;;;;;;;;;28.39;66.19;100749.28;5077861;27;66585;-35
2021/11/27 11:07:18;;;;;;;;;;;;;;;28.35;65.77;100742.63;5078555;27;69368;-35
2021/11/27 11:10:07;;;;;;;;;;;;;;;28.29;66.07;100743.47;5065701;27;65682;-36
2021/11/27 11:12:50;;;;;;;;;;;;;;;28.26;66.34;100739.31;5077104;27;70670;-34
2021/11/27 11:15:25;;;;;;;;;;;;;;;28.23;66.24;100728.94;5075746;27;66758;-37
2021/11/27 11:18:15;;;;;;;;;;;;;;;28.24;66.44;100735.97;5077055;27;69152;-36
2021/11/27 11:20:50;;;;;;;;;;;;;;;28.21;66.24;100740.97;5073416;27;65635;-36
2021/11/27 11:23:33;;;;;;;;;;;;;;;28.24;66.35;100735.97;5078690;27;69109;-36
2021/11/27 11:26:13;;;;;;;;;;;;;;;28.24;66.66;100743.25;5078108;27;66122;-35
2021/11/27 11:28:49;;;;;;;;;;;;;;;28.29;66.46;100743.47;5074571;27;69715;-36
2021/11/27 11:31:21;;;;;;;;;;;;;;;28.28;66.76;100741.81;5077280;27;65851;-36
2021/11/27 11:33:55;;;;;;;;;;;;;;;28.27;66.33;100740.13;5078076;27;70020;-36
2021/11/27 11:36:31;;;;;;;;;;;;;;;28.24;66.68;100735.16;5077294;27;66588;-36
2021/11/27 11:39:02;;;;;;;;;;;;;;;28.25;65.96;100747.59;5067644;27;69685;-37
2021/11/27 11:41:36;;;;;;;;;;;;;;;28.25;66.10;100744.91;5079396;27;65632;-37
2021/11/27 11:44:06;;;;;;;;;;;;;;;28.22;66.26;100750.69;5076348;27;69984;-37
2021/11/27 11:46:37;;;;;;;;;;;;;;;28.20;65.95;100760.88;5077865;28;66457;-36
2021/11/27 11:49:07;;;;;;;;;;;;;;;28.13;65.87;100751.94;5063331;27;69983;-36
2021/11/27 11:51:44;;;;;;;;;;;;;;;28.08;66.31;100763.34;5079241;27;66334;-36
2021/11/27 11:54:14;;;;;;;;;;;;;;;28.06;66.32;100755.47;5077650;27;70475;-37
2021/11/27 11:56:45;;;;;;;;;;;;;;;28.04;66.75;100779.09;5075729;27;66780;-36
2021/11/27 11:59:28;;;;;;;;;;;;;;;28.01;66.71;100757.13;5072286;27;69816;-38
2021/11/27 12:02:16;;;;;;;;;;;;;;;28.07;66.97;100767.91;5073837;27;66760;-36
2021/11/27 12:04:59;;;;;;;;;;;;;;;28.07;66.23;100773.28;5048237;28;69547;-36
2021/11/27 12:07:39;;;;;;;;;;;;;;;28.08;66.53;100774.13;5041206;27;66568;-36
2021/11/27 12:10:13;;;;;;;;;;;;;;;28.09;66.83;100780.38;5078435;27;70564;-36
2021/11/27 12:13:09;;;;;;;;;;;;;;;28.09;66.55;100774.97;5044338;27;66203;-37
2021/11/27 12:15:39;;;;;;;;;;;;;;;28.05;66.55;100780.78;5075933;27;69585;-36
2021/11/27 12:18:17;;;;;;;;;;;;;;;28.10;66.44;100788.25;5058111;28;67090;-36
2021/11/27 12:20:54;;;;;;;;;;;;;;;28.12;66.66;100785.34;5057478;28;71038;-37
2021/11/27 12:26:08;;;;;;;;;;;;;;;28.26;67.22;100787.03;5074429;28;68984;-36
2021/11/27 12:28:38;;;;;;;;;;;;;;;28.37;67.60;100797.22;5041316;28;65513;-35
2021/11/27 12:31:10;;;;;;;;;;;;;;;28.43;68.18;100803.69;5072046;28;70737;-34
2021/11/27 12:33:43;;;;;;;;;;;;;;;28.49;68.37;100798.28;5061472;28;66649;-34
2021/11/27 12:36:41;;;;;;;;;;;;;;;28.56;68.75;100808.28;5068553;27;70062;-34
2021/11/27 12:39:23;;;;;;;;;;;;;;;28.58;69.29;100808.88;5065922;27;66520;-35
2021/11/27 12:42:03;;;;;;;;;;;;;;;28.63;68.88;100817.19;5069689;28;69088;-36
2021/11/27 12:44:33;;;;;;;;;;;;;;;28.68;69.07;100814.72;5062547;28;66431;-36
2021/11/27 12:47:07;;;;;;;;;;;;;;;28.72;69.70;100818.66;5071450;27;70862;-36
2021/11/27 12:49:37;;;;;;;;;;;;;;;28.72;70.15;100816.81;5068979;27;66442;-36
2021/11/27 12:52:11;;;;;;;;;;;;;;;28.80;70.58;100831.94;5068175;27;70073;-36
2021/11/27 12:54:42;;;;;;;;;;;;;;;28.71;67.99;100823.22;5074916;27;66528;-36
2021/11/27 12:57:35;;;;;;;;;;;;;;;28.75;69.30;100837.13;5061743;27;70535;-35
2021/11/27 13:00:06;;;;;;;;;;;;;;;28.79;69.58;100841.09;5069552;27;65682;-36
2021/11/27 13:02:59;;;;;;;;;;;;;;;28.81;69.66;100839.03;5060050;27;69927;-36
2021/11/27 13:05:36;;;;;;;;;;;;;;;28.83;69.41;100845.03;5071585;27;66682;-35
2021/11/27 13:08:11;;;;;;;;;;;;;;;28.84;69.75;100844.00;5070715;27;70072;-36
2021/11/27 13:10:51;;;;;;;;;;;;;;;28.89;69.51;100846.91;5047794;27;64883;-36
2021/11/27 13:13:52;;;;;;;;;;;;;;;28.91;69.25;100850.22;5073048;27;70479;-36